sensor_id;sensor_type;location;lat;lon;timestamp;pressure;altitude;pressure_sealevel;temperature;humidity
47913;BME280;33676;51.006;17.180;2023-08-21T00:00:52;100661.86;;;22.72;96.74
47913;BME280;33676;51.006;17.180;2023-08-21T00:03:39;100657.90;;;22.71;97.40
47913;BME280;33676;51.006;17.180;2023-08-21T00:06:06;100656.81;;;22.70;97.68
47913;BME280;33676;51.006;17.180;2023-08-21T00:08:33;100654.52;;;22.67;97.67
47913;BME280;33676;51.006;17.180;2023-08-21T00:11:00;100651.36;;;22.61;97.00
47913;BME280;33676;51.006;17.180;2023-08-21T00:13:27;100649.73;;;22.58;96.79
47913;BME280;33676;51.006;17.180;2023-08-21T00:15:54;100647.84;;;22.55;96.35
47913;BME280;33676;51.006;17.180;2023-08-21T00:18:22;100651.46;;;22.51;96.16
47913;BME280;33676;51.006;17.180;2023-08-21T00:20:49;100646.64;;;22.47;96.15
47913;BME280;33676;51.006;17.180;2023-08-21T00:23:16;100642.31;;;22.43;96.00
47913;BME280;33676;51.006;17.180;2023-08-21T00:25:47;100640.33;;;22.39;96.12
47913;BME280;33676;51.006;17.180;2023-08-21T00:28:15;100638.12;;;22.36;96.15
47913;BME280;33676;51.006;17.180;2023-08-21T00:30:42;100637.66;;;22.34;96.20
47913;BME280;33676;51.006;17.180;2023-08-21T00:33:09;100639.34;;;22.33;96.07
47913;BME280;33676;51.006;17.180;2023-08-21T00:35:36;100642.15;;;22.31;96.16
47913;BME280;33676;51.006;17.180;2023-08-21T00:38:03;100645.36;;;22.31;96.25
47913;BME280;33676;51.006;17.180;2023-08-21T00:40:31;100641.79;;;22.32;96.58
47913;BME280;33676;51.006;17.180;2023-08-21T00:42:58;100641.02;;;22.32;96.82
47913;BME280;33676;51.006;17.180;2023-08-21T00:45:26;100644.13;;;22.34;96.94
47913;BME280;33676;51.006;17.180;2023-08-21T00:47:53;100646.56;;;22.33;96.73
47913;BME280;33676;51.006;17.180;2023-08-21T00:50:20;100644.84;;;22.33;96.83
47913;BME280;33676;51.006;17.180;2023-08-21T00:52:47;100642.94;;;22.32;96.80
47913;BME280;33676;51.006;17.180;2023-08-21T00:55:15;100643.52;;;22.32;96.96
47913;BME280;33676;51.006;17.180;2023-08-21T00:57:43;100647.90;;;22.31;96.77
47913;BME280;33676;51.006;17.180;2023-08-21T01:00:11;100650.69;;;22.30;97.13
47913;BME280;33676;51.006;17.180;2023-08-21T01:02:39;100648.59;;;22.30;97.25
47913;BME280;33676;51.006;17.180;2023-08-21T01:05:10;100644.52;;;22.29;97.47
47913;BME280;33676;51.006;17.180;2023-08-21T01:07:51;100638.63;;;22.28;97.41
47913;BME280;33676;51.006;17.180;2023-08-21T01:10:52;100634.52;;;22.25;97.21
47913;BME280;33676;51.006;17.180;2023-08-21T01:16:13;100616.91;;;22.18;97.08
47913;BME280;33676;51.006;17.180;2023-08-21T01:18:43;100618.52;;;22.15;97.04
47913;BME280;33676;51.006;17.180;2023-08-21T01:21:12;100616.30;;;22.13;97.01
47913;BME280;33676;51.006;17.180;2023-08-21T01:23:41;100614.11;;;22.11;97.41
47913;BME280;33676;51.006;17.180;2023-08-21T01:26:11;100617.13;;;22.12;97.56
47913;BME280;33676;51.006;17.180;2023-08-21T01:28:38;100618.89;;;22.12;97.68
47913;BME280;33676;51.006;17.180;2023-08-21T01:31:20;100619.46;;;22.11;97.71
47913;BME280;33676;51.006;17.180;2023-08-21T01:33:53;100618.92;;;22.12;97.94
47913;BME280;33676;51.006;17.180;2023-08-21T01:36:25;100611.02;;;22.14;98.30
47913;BME280;33676;51.006;17.180;2023-08-21T01:38:52;100608.17;;;22.15;98.34
47913;BME280;33676;51.006;17.180;2023-08-21T01:41:23;100615.62;;;22.17;98.62
47913;BME280;33676;51.006;17.180;2023-08-21T01:43:50;100622.88;;;22.16;99.88
47913;BME280;33676;51.006;17.180;2023-08-21T01:46:17;100621.92;;;22.15;100.00
47913;BME280;33676;51.006;17.180;2023-08-21T01:48:44;100620.73;;;22.18;100.00
47913;BME280;33676;51.006;17.180;2023-08-21T01:51:11;100623.23;;;22.23;100.00
47913;BME280;33676;51.006;17.180;2023-08-21T01:53:39;100620.89;;;22.26;100.00
47913;BME280;33676;51.006;17.180;2023-08-21T01:56:05;100619.33;;;22.27;100.00
47913;BME280;33676;51.006;17.180;2023-08-21T01:58:32;100613.57;;;22.24;100.00
47913;BME280;33676;51.006;17.180;2023-08-21T02:01:00;100612.10;;;22.24;100.00
47913;BME280;33676;51.006;17.180;2023-08-21T02:03:27;100618.95;;;22.26;100.00
47913;BME280;33676;51.006;17.180;2023-08-21T02:05:57;100622.63;;;22.28;100.00
47913;BME280;33676;51.006;17.180;2023-08-21T02:08:31;100626.05;;;22.29;100.00
47913;BME280;33676;51.006;17.180;2023-08-21T02:11:01;100632.81;;;22.31;100.00
47913;BME280;33676;51.006;17.180;2023-08-21T02:13:28;100641.48;;;22.31;100.00
47913;BME280;33676;51.006;17.180;2023-08-21T02:15:55;100640.86;;;22.30;100.00
47913;BME280;33676;51.006;17.180;2023-08-21T02:18:22;100640.73;;;22.30;100.00
47913;BME280;33676;51.006;17.180;2023-08-21T02:20:50;100640.68;;;22.32;100.00
47913;BME280;33676;51.006;17.180;2023-08-21T02:23:17;100644.13;;;22.34;100.00
47913;BME280;33676;51.006;17.180;2023-08-21T02:25:44;100650.30;;;22.37;100.00
47913;BME280;33676;51.006;17.180;2023-08-21T02:28:11;100649.61;;;22.41;100.00
47913;BME280;33676;51.006;17.180;2023-08-21T02:30:41;100649.73;;;22.45;100.00
47913;BME280;33676;51.006;17.180;2023-08-21T02:33:08;100649.44;;;22.47;100.00
47913;BME280;33676;51.006;17.180;2023-08-21T02:35:36;100649.48;;;22.52;100.00
47913;BME280;33676;51.006;17.180;2023-08-21T02:38:03;100645.27;;;22.56;100.00
47913;BME280;33676;51.006;17.180;2023-08-21T02:40:30;100648.88;;;22.59;100.00
47913;BME280;33676;51.006;17.180;2023-08-21T02:42:57;100654.21;;;22.62;100.00
47913;BME280;33676;51.006;17.180;2023-08-21T02:45:25;100665.47;;;22.65;100.00
47913;BME280;33676;51.006;17.180;2023-08-21T02:47:52;100680.34;;;22.67;100.00
47913;BME280;33676;51.006;17.180;2023-08-21T02:50:19;100704.50;;;22.68;100.00
47913;BME280;33676;51.006;17.180;2023-08-21T02:52:46;100739.77;;;22.66;100.00
47913;BME280;33676;51.006;17.180;2023-08-21T02:55:13;100768.21;;;22.66;100.00
47913;BME280;33676;51.006;17.180;2023-08-21T02:57:41;100771.65;;;22.61;100.00
47913;BME280;33676;51.006;17.180;2023-08-21T03:00:08;100736.58;;;22.55;100.00
47913;BME280;33676;51.006;17.180;2023-08-21T03:02:35;100723.38;;;22.49;100.00
47913;BME280;33676;51.006;17.180;2023-08-21T03:05:04;100743.17;;;22.44;100.00
47913;BME280;33676;51.006;17.180;2023-08-21T03:07:31;100746.90;;;22.40;100.00
47913;BME280;33676;51.006;17.180;2023-08-21T03:09:58;100741.97;;;22.35;100.00
47913;BME280;33676;51.006;17.180;2023-08-21T03:12:25;100725.16;;;22.33;100.00
47913;BME280;33676;51.006;17.180;2023-08-21T03:14:52;100712.55;;;22.31;100.00
47913;BME280;33676;51.006;17.180;2023-08-21T03:17:19;100704.86;;;22.30;100.00
47913;BME280;33676;51.006;17.180;2023-08-21T03:21:50;100696.33;;;22.31;100.00
47913;BME280;33676;51.006;17.180;2023-08-21T03:24:20;100690.94;;;22.30;100.00
47913;BME280;33676;51.006;17.180;2023-08-21T03:26:48;100696.03;;;22.31;100.00
47913;BME280;33676;51.006;17.180;2023-08-21T03:29:16;100696.29;;;22.32;100.00
47913;BME280;33676;51.006;17.180;2023-08-21T03:31:49;100694.91;;;22.33;100.00
47913;BME280;33676;51.006;17.180;2023-08-21T03:34:17;100696.16;;;22.35;100.00
47913;BME280;33676;51.006;17.180;2023-08-21T03:36:46;100691.12;;;22.44;100.00
47913;BME280;33676;51.006;17.180;2023-08-21T03:39:14;100686.33;;;22.58;100.00
47913;BME280;33676;51.006;17.180;2023-08-21T03:41:43;100682.77;;;22.68;100.00
47913;BME280;33676;51.006;17.180;2023-08-21T03:44:11;100678.25;;;22.74;100.00
47913;BME280;33676;51.006;17.180;2023-08-21T03:46:40;100677.44;;;22.78;100.00
47913;BME280;33676;51.006;17.180;2023-08-21T03:49:08;100680.95;;;22.86;100.00
47913;BME280;33676;51.006;17.180;2023-08-21T03:51:37;100681.31;;;22.98;100.00
47913;BME280;33676;51.006;17.180;2023-08-21T03:54:05;100675.27;;;23.02;100.00
47913;BME280;33676;51.006;17.180;2023-08-21T03:56:33;100674.42;;;22.92;100.00
47913;BME280;33676;51.006;17.180;2023-08-21T03:59:02;100682.91;;;22.83;100.00
47913;BME280;33676;51.006;17.180;2023-08-21T04:01:31;100692.92;;;22.76;100.00
47913;BME280;33676;51.006;17.180;2023-08-21T04:03:59;100693.96;;;22.71;100.00
47913;BME280;33676;51.006;17.180;2023-08-21T04:06:28;100694.41;;;22.67;100.00
47913;BME280;33676;51.006;17.180;2023-08-21T04:08:56;100691.01;;;22.64;100.00
47913;BME280;33676;51.006;17.180;2023-08-21T04:11:24;100688.03;;;22.63;100.00
47913;BME280;33676;51.006;17.180;2023-08-21T04:13:53;100689.23;;;22.60;100.00
47913;BME280;33676;51.006;17.180;2023-08-21T04:18:42;100696.27;;;22.58;100.00
47913;BME280;33676;51.006;17.180;2023-08-21T04:21:10;100701.77;;;22.54;100.00
47913;BME280;33676;51.006;17.180;2023-08-21T04:23:38;100708.16;;;22.53;100.00
47913;BME280;33676;51.006;17.180;2023-08-21T04:26:07;100714.95;;;22.52;100.00
47913;BME280;33676;51.006;17.180;2023-08-21T04:28:36;100718.80;;;22.51;100.00
47913;BME280;33676;51.006;17.180;2023-08-21T04:31:07;100714.09;;;22.52;100.00
47913;BME280;33676;51.006;17.180;2023-08-21T04:33:36;100709.05;;;22.54;100.00
47913;BME280;33676;51.006;17.180;2023-08-21T04:36:05;100708.04;;;22.55;100.00
47913;BME280;33676;51.006;17.180;2023-08-21T04:38:33;100716.88;;;22.56;100.00
47913;BME280;33676;51.006;17.180;2023-08-21T04:41:08;100729.70;;;22.54;100.00
47913;BME280;33676;51.006;17.180;2023-08-21T04:43:37;100735.54;;;22.52;100.00
47913;BME280;33676;51.006;17.180;2023-08-21T04:46:05;100743.27;;;22.50;100.00
47913;BME280;33676;51.006;17.180;2023-08-21T04:48:34;100740.80;;;22.48;100.00
47913;BME280;33676;51.006;17.180;2023-08-21T04:51:02;100735.30;;;22.46;100.00
47913;BME280;33676;51.006;17.180;2023-08-21T04:53:31;100732.73;;;22.43;100.00
47913;BME280;33676;51.006;17.180;2023-08-21T04:55:59;100732.41;;;22.42;100.00
47913;BME280;33676;51.006;17.180;2023-08-21T04:58:28;100725.77;;;22.41;100.00
47913;BME280;33676;51.006;17.180;2023-08-21T05:00:57;100726.17;;;22.40;100.00
47913;BME280;33676;51.006;17.180;2023-08-21T05:03:26;100734.77;;;22.37;100.00
47913;BME280;33676;51.006;17.180;2023-08-21T05:05:55;100737.88;;;22.34;100.00
47913;BME280;33676;51.006;17.180;2023-08-21T05:08:25;100739.31;;;22.31;100.00
47913;BME280;33676;51.006;17.180;2023-08-21T05:10:58;100739.05;;;22.30;100.00
47913;BME280;33676;51.006;17.180;2023-08-21T05:13:27;100736.13;;;22.29;100.00
47913;BME280;33676;51.006;17.180;2023-08-21T05:15:57;100730.92;;;22.28;100.00
47913;BME280;33676;51.006;17.180;2023-08-21T05:18:26;100734.30;;;22.28;100.00
47913;BME280;33676;51.006;17.180;2023-08-21T05:20:55;100739.52;;;22.28;100.00
47913;BME280;33676;51.006;17.180;2023-08-21T05:23:24;100750.42;;;22.26;100.00
47913;BME280;33676;51.006;17.180;2023-08-21T05:25:52;100753.85;;;22.24;100.00
47913;BME280;33676;51.006;17.180;2023-08-21T05:28:20;100746.90;;;22.24;100.00
47913;BME280;33676;51.006;17.180;2023-08-21T05:30:49;100748.52;;;22.25;100.00
47913;BME280;33676;51.006;17.180;2023-08-21T05:33:18;100767.34;;;22.27;100.00
47913;BME280;33676;51.006;17.180;2023-08-21T05:35:46;100765.02;;;22.29;100.00
47913;BME280;33676;51.006;17.180;2023-08-21T05:38:14;100762.23;;;22.31;100.00
47913;BME280;33676;51.006;17.180;2023-08-21T05:40:43;100760.64;;;22.38;100.00
47913;BME280;33676;51.006;17.180;2023-08-21T05:43:11;100765.37;;;22.46;100.00
47913;BME280;33676;51.006;17.180;2023-08-21T05:45:40;100766.47;;;22.55;100.00
47913;BME280;33676;51.006;17.180;2023-08-21T05:48:08;100769.09;;;22.60;100.00
47913;BME280;33676;51.006;17.180;2023-08-21T05:50:37;100771.87;;;22.62;100.00
47913;BME280;33676;51.006;17.180;2023-08-21T05:53:06;100772.27;;;22.64;100.00
47913;BME280;33676;51.006;17.180;2023-08-21T05:55:37;100765.42;;;22.68;100.00
47913;BME280;33676;51.006;17.180;2023-08-21T05:58:05;100765.52;;;22.73;100.00
47913;BME280;33676;51.006;17.180;2023-08-21T06:00:34;100762.60;;;22.78;100.00
47913;BME280;33676;51.006;17.180;2023-08-21T06:03:03;100759.55;;;22.83;100.00
47913;BME280;33676;51.006;17.180;2023-08-21T06:05:32;100765.75;;;22.87;100.00
47913;BME280;33676;51.006;17.180;2023-08-21T06:08:00;100768.45;;;22.93;100.00
47913;BME280;33676;51.006;17.180;2023-08-21T06:10:31;100779.14;;;22.97;100.00
47913;BME280;33676;51.006;17.180;2023-08-21T06:13:00;100778.52;;;22.96;100.00
47913;BME280;33676;51.006;17.180;2023-08-21T06:15:28;100772.37;;;23.01;100.00
47913;BME280;33676;51.006;17.180;2023-08-21T06:17:58;100778.23;;;23.09;100.00
47913;BME280;33676;51.006;17.180;2023-08-21T06:20:27;100777.02;;;23.16;100.00
47913;BME280;33676;51.006;17.180;2023-08-21T06:22:55;100771.55;;;23.24;100.00
47913;BME280;33676;51.006;17.180;2023-08-21T06:25:24;100766.94;;;23.31;100.00
47913;BME280;33676;51.006;17.180;2023-08-21T06:27:52;100768.52;;;23.33;100.00
47913;BME280;33676;51.006;17.180;2023-08-21T06:30:27;100774.47;;;23.40;100.00
47913;BME280;33676;51.006;17.180;2023-08-21T06:32:56;100786.36;;;23.54;100.00
47913;BME280;33676;51.006;17.180;2023-08-21T06:35:24;100790.60;;;23.70;100.00
47913;BME280;33676;51.006;17.180;2023-08-21T06:37:52;100799.42;;;23.84;100.00
47913;BME280;33676;51.006;17.180;2023-08-21T06:40:23;100810.64;;;23.92;100.00
47913;BME280;33676;51.006;17.180;2023-08-21T06:42:51;100816.80;;;24.01;100.00
47913;BME280;33676;51.006;17.180;2023-08-21T06:45:20;100816.98;;;24.07;100.00
47913;BME280;33676;51.006;17.180;2023-08-21T06:47:49;100817.00;;;24.15;100.00
47913;BME280;33676;51.006;17.180;2023-08-21T06:50:19;100817.27;;;24.26;100.00
47913;BME280;33676;51.006;17.180;2023-08-21T06:52:47;100822.48;;;24.37;100.00
47913;BME280;33676;51.006;17.180;2023-08-21T06:55:15;100821.29;;;24.47;100.00
47913;BME280;33676;51.006;17.180;2023-08-21T06:57:44;100819.35;;;24.55;100.00
47913;BME280;33676;51.006;17.180;2023-08-21T07:00:13;100817.43;;;24.66;100.00
47913;BME280;33676;51.006;17.180;2023-08-21T07:02:41;100811.08;;;24.79;100.00
47913;BME280;33676;51.006;17.180;2023-08-21T07:05:10;100811.64;;;24.94;100.00
47913;BME280;33676;51.006;17.180;2023-08-21T07:07:40;100811.52;;;25.07;100.00
47913;BME280;33676;51.006;17.180;2023-08-21T07:10:09;100813.06;;;25.20;100.00
47913;BME280;33676;51.006;17.180;2023-08-21T07:12:37;100813.92;;;25.28;100.00
47913;BME280;33676;51.006;17.180;2023-08-21T07:15:07;100814.92;;;25.31;100.00
47913;BME280;33676;51.006;17.180;2023-08-21T07:17:35;100816.09;;;25.24;100.00
47913;BME280;33676;51.006;17.180;2023-08-21T07:20:05;100815.16;;;25.15;100.00
47913;BME280;33676;51.006;17.180;2023-08-21T07:22:34;100823.73;;;25.13;100.00
47913;BME280;33676;51.006;17.180;2023-08-21T07:25:02;100828.61;;;25.06;100.00
47913;BME280;33676;51.006;17.180;2023-08-21T07:27:33;100826.22;;;25.05;100.00
47913;BME280;33676;51.006;17.180;2023-08-21T07:30:02;100824.71;;;25.02;100.00
47913;BME280;33676;51.006;17.180;2023-08-21T07:32:38;100828.94;;;24.96;100.00
47913;BME280;33676;51.006;17.180;2023-08-21T07:35:18;100833.12;;;24.90;100.00
47913;BME280;33676;51.006;17.180;2023-08-21T07:37:46;100833.73;;;24.88;100.00
47913;BME280;33676;51.006;17.180;2023-08-21T07:40:15;100836.66;;;24.89;100.00
47913;BME280;33676;51.006;17.180;2023-08-21T07:42:44;100842.77;;;24.88;100.00
47913;BME280;33676;51.006;17.180;2023-08-21T07:45:12;100841.63;;;24.89;100.00
47913;BME280;33676;51.006;17.180;2023-08-21T07:47:41;100846.89;;;24.95;100.00
47913;BME280;33676;51.006;17.180;2023-08-21T07:50:09;100848.63;;;25.02;100.00
47913;BME280;33676;51.006;17.180;2023-08-21T07:52:38;100849.84;;;25.08;100.00
47913;BME280;33676;51.006;17.180;2023-08-21T07:55:07;100843.22;;;25.13;100.00
47913;BME280;33676;51.006;17.180;2023-08-21T07:57:36;100842.48;;;25.13;100.00
47913;BME280;33676;51.006;17.180;2023-08-21T08:00:06;100838.98;;;25.15;100.00
47913;BME280;33676;51.006;17.180;2023-08-21T08:02:36;100838.98;;;25.15;100.00
47913;BME280;33676;51.006;17.180;2023-08-21T08:05:06;100843.93;;;25.25;100.00
47913;BME280;33676;51.006;17.180;2023-08-21T08:07:34;100841.75;;;25.41;100.00
47913;BME280;33676;51.006;17.180;2023-08-21T08:10:03;100838.64;;;25.59;100.00
47913;BME280;33676;51.006;17.180;2023-08-21T08:12:32;100838.28;;;25.75;100.00
47913;BME280;33676;51.006;17.180;2023-08-21T08:15:01;100843.92;;;25.92;100.00
47913;BME280;33676;51.006;17.180;2023-08-21T08:17:30;100854.20;;;26.11;100.00
47913;BME280;33676;51.006;17.180;2023-08-21T08:19:58;100852.43;;;26.27;100.00
47913;BME280;33676;51.006;17.180;2023-08-21T08:22:27;100842.89;;;26.36;100.00
47913;BME280;33676;51.006;17.180;2023-08-21T08:24:55;100839.19;;;26.48;100.00
47913;BME280;33676;51.006;17.180;2023-08-21T08:27:24;100835.37;;;26.51;99.24
47913;BME280;33676;51.006;17.180;2023-08-21T08:29:53;100830.10;;;26.41;99.06
47913;BME280;33676;51.006;17.180;2023-08-21T08:32:21;100831.38;;;26.43;99.42
47913;BME280;33676;51.006;17.180;2023-08-21T08:34:51;100833.48;;;26.45;99.07
47913;BME280;33676;51.006;17.180;2023-08-21T08:37:22;100829.73;;;26.47;98.80
47913;BME280;33676;51.006;17.180;2023-08-21T08:39:50;100821.91;;;26.47;98.45
47913;BME280;33676;51.006;17.180;2023-08-21T08:42:19;100819.46;;;26.53;98.60
47913;BME280;33676;51.006;17.180;2023-08-21T08:44:49;100813.40;;;26.60;98.21
47913;BME280;33676;51.006;17.180;2023-08-21T08:47:18;100809.95;;;26.67;97.96
47913;BME280;33676;51.006;17.180;2023-08-21T08:49:48;100808.92;;;26.76;97.69
47913;BME280;33676;51.006;17.180;2023-08-21T08:52:17;100810.52;;;26.84;97.35
47913;BME280;33676;51.006;17.180;2023-08-21T08:54:47;100814.91;;;26.92;97.12
47913;BME280;33676;51.006;17.180;2023-08-21T08:57:15;100816.73;;;26.99;96.49
47913;BME280;33676;51.006;17.180;2023-08-21T08:59:43;100822.77;;;27.07;96.12
47913;BME280;33676;51.006;17.180;2023-08-21T09:02:12;100823.75;;;27.20;96.07
47913;BME280;33676;51.006;17.180;2023-08-21T09:04:40;100825.38;;;27.26;94.99
47913;BME280;33676;51.006;17.180;2023-08-21T09:07:10;100820.77;;;27.26;94.02
47913;BME280;33676;51.006;17.180;2023-08-21T09:09:46;100822.03;;;27.31;93.75
47913;BME280;33676;51.006;17.180;2023-08-21T09:12:16;100821.64;;;27.47;94.14
47913;BME280;33676;51.006;17.180;2023-08-21T09:14:45;100818.33;;;27.78;95.06
47913;BME280;33676;51.006;17.180;2023-08-21T09:17:15;100817.98;;;28.03;94.33
47913;BME280;33676;51.006;17.180;2023-08-21T09:19:44;100818.44;;;28.13;93.03
47913;BME280;33676;51.006;17.180;2023-08-21T09:22:18;100817.77;;;28.13;91.56
47913;BME280;33676;51.006;17.180;2023-08-21T09:25:05;100819.22;;;28.22;91.44
47913;BME280;33676;51.006;17.180;2023-08-21T09:27:39;100822.02;;;28.35;91.06
47913;BME280;33676;51.006;17.180;2023-08-21T09:30:10;100819.09;;;28.40;90.26
47913;BME280;33676;51.006;17.180;2023-08-21T09:32:56;100817.69;;;28.40;89.52
47913;BME280;33676;51.006;17.180;2023-08-21T09:35:25;100823.88;;;28.40;89.06
47913;BME280;33676;51.006;17.180;2023-08-21T09:37:54;100820.77;;;28.35;88.29
47913;BME280;33676;51.006;17.180;2023-08-21T09:40:23;100820.39;;;28.44;88.54
47913;BME280;33676;51.006;17.180;2023-08-21T09:42:56;100820.51;;;28.62;89.26
47913;BME280;33676;51.006;17.180;2023-08-21T09:45:26;100818.09;;;28.74;89.21
47913;BME280;33676;51.006;17.180;2023-08-21T09:47:56;100815.02;;;28.66;88.17
47913;BME280;33676;51.006;17.180;2023-08-21T09:50:29;100810.23;;;28.61;87.79
47913;BME280;33676;51.006;17.180;2023-08-21T09:52:58;100811.30;;;28.65;87.58
47913;BME280;33676;51.006;17.180;2023-08-21T09:55:55;100810.99;;;28.73;87.16
47913;BME280;33676;51.006;17.180;2023-08-21T09:58:24;100805.02;;;28.76;87.15
47913;BME280;33676;51.006;17.180;2023-08-21T10:00:57;100803.45;;;28.89;87.25
47913;BME280;33676;51.006;17.180;2023-08-21T10:03:26;100797.66;;;28.96;86.83
47913;BME280;33676;51.006;17.180;2023-08-21T10:05:58;100790.09;;;29.07;86.51
47913;BME280;33676;51.006;17.180;2023-08-21T10:08:29;100786.44;;;29.23;87.22
47913;BME280;33676;51.006;17.180;2023-08-21T10:10:58;100781.30;;;29.46;87.54
47913;BME280;33676;51.006;17.180;2023-08-21T10:13:33;100783.38;;;29.70;87.16
47913;BME280;33676;51.006;17.180;2023-08-21T10:16:04;100787.33;;;29.85;86.54
47913;BME280;33676;51.006;17.180;2023-08-21T10:18:36;100786.42;;;30.07;86.82
47913;BME280;33676;51.006;17.180;2023-08-21T10:23:48;100786.38;;;30.49;85.57
47913;BME280;33676;51.006;17.180;2023-08-21T10:26:22;100785.27;;;30.76;85.30
47913;BME280;33676;51.006;17.180;2023-08-21T10:28:59;100783.26;;;31.03;84.88
47913;BME280;33676;51.006;17.180;2023-08-21T10:31:39;100782.91;;;31.28;84.17
47913;BME280;33676;51.006;17.180;2023-08-21T10:34:13;100785.60;;;31.47;83.14
47913;BME280;33676;51.006;17.180;2023-08-21T10:41:57;100785.10;;;32.06;81.70
47913;BME280;33676;51.006;17.180;2023-08-21T10:50:03;100786.96;;;32.53;79.02
47913;BME280;33676;51.006;17.180;2023-08-21T10:52:38;100791.57;;;32.48;78.19
47913;BME280;33676;51.006;17.180;2023-08-21T10:55:09;100787.84;;;32.49;77.59
47913;BME280;33676;51.006;17.180;2023-08-21T10:57:39;100783.54;;;32.65;77.65
47913;BME280;33676;51.006;17.180;2023-08-21T11:00:15;100790.02;;;32.88;77.63
47913;BME280;33676;51.006;17.180;2023-08-21T11:02:48;100789.90;;;33.11;77.73
47913;BME280;33676;51.006;17.180;2023-08-21T11:05:17;100785.55;;;33.32;77.19
47913;BME280;33676;51.006;17.180;2023-08-21T11:07:48;100782.24;;;33.39;75.58
47913;BME280;33676;51.006;17.180;2023-08-21T11:10:22;100779.23;;;33.42;74.80
47913;BME280;33676;51.006;17.180;2023-08-21T11:12:56;100779.98;;;33.42;73.87
47913;BME280;33676;51.006;17.180;2023-08-21T11:15:26;100779.77;;;33.41;73.84
47913;BME280;33676;51.006;17.180;2023-08-21T11:18:00;100781.05;;;33.46;73.48
47913;BME280;33676;51.006;17.180;2023-08-21T11:20:35;100780.39;;;33.51;73.11
47913;BME280;33676;51.006;17.180;2023-08-21T11:23:05;100778.84;;;33.65;73.54
47913;BME280;33676;51.006;17.180;2023-08-21T11:25:39;100775.14;;;33.78;73.19
47913;BME280;33676;51.006;17.180;2023-08-21T11:28:08;100771.89;;;33.74;72.38
47913;BME280;33676;51.006;17.180;2023-08-21T11:30:37;100775.90;;;33.79;72.33
47913;BME280;33676;51.006;17.180;2023-08-21T11:33:11;100772.80;;;33.80;71.78
47913;BME280;33676;51.006;17.180;2023-08-21T11:35:41;100774.30;;;33.82;71.17
47913;BME280;33676;51.006;17.180;2023-08-21T11:38:21;100773.35;;;33.87;70.79
47913;BME280;33676;51.006;17.180;2023-08-21T11:41:05;100774.13;;;33.90;69.88
47913;BME280;33676;51.006;17.180;2023-08-21T11:43:43;100769.56;;;33.82;70.05
47913;BME280;33676;51.006;17.180;2023-08-21T11:46:11;100765.55;;;33.92;69.77
47913;BME280;33676;51.006;17.180;2023-08-21T11:48:41;100766.77;;;34.06;69.55
47913;BME280;33676;51.006;17.180;2023-08-21T11:51:10;100765.54;;;34.25;69.32
47913;BME280;33676;51.006;17.180;2023-08-21T11:53:41;100758.55;;;34.41;68.97
47913;BME280;33676;51.006;17.180;2023-08-21T11:56:16;100756.55;;;34.46;68.27
47913;BME280;33676;51.006;17.180;2023-08-21T11:58:46;100758.02;;;34.46;67.62
47913;BME280;33676;51.006;17.180;2023-08-21T12:01:19;100755.61;;;34.44;68.06
47913;BME280;33676;51.006;17.180;2023-08-21T12:03:48;100754.38;;;34.46;67.47
47913;BME280;33676;51.006;17.180;2023-08-21T12:06:24;100754.16;;;34.47;67.71
47913;BME280;33676;51.006;17.180;2023-08-21T12:08:54;100750.63;;;34.48;67.00
47913;BME280;33676;51.006;17.180;2023-08-21T12:11:23;100749.17;;;34.52;67.02
47913;BME280;33676;51.006;17.180;2023-08-21T12:13:52;100747.23;;;34.57;66.93
47913;BME280;33676;51.006;17.180;2023-08-21T12:16:20;100753.44;;;34.70;66.60
47913;BME280;33676;51.006;17.180;2023-08-21T12:18:49;100759.49;;;34.86;66.72
47913;BME280;33676;51.006;17.180;2023-08-21T12:21:19;100759.87;;;35.07;66.23
47913;BME280;33676;51.006;17.180;2023-08-21T12:23:47;100753.09;;;34.98;65.41
47913;BME280;33676;51.006;17.180;2023-08-21T12:26:16;100749.73;;;34.84;64.98
47913;BME280;33676;51.006;17.180;2023-08-21T12:28:49;100751.02;;;34.77;65.02
47913;BME280;33676;51.006;17.180;2023-08-21T12:31:18;100753.06;;;34.71;65.19
47913;BME280;33676;51.006;17.180;2023-08-21T12:33:46;100753.41;;;34.62;65.16
47913;BME280;33676;51.006;17.180;2023-08-21T12:36:15;100750.05;;;34.53;64.58
47913;BME280;33676;51.006;17.180;2023-08-21T12:38:43;100748.67;;;34.52;65.09
47913;BME280;33676;51.006;17.180;2023-08-21T12:41:12;100747.13;;;34.47;64.99
47913;BME280;33676;51.006;17.180;2023-08-21T12:43:40;100745.73;;;34.27;65.02
47913;BME280;33676;51.006;17.180;2023-08-21T12:46:09;100745.60;;;34.22;65.45
47913;BME280;33676;51.006;17.180;2023-08-21T12:48:39;100746.33;;;34.16;64.97
47913;BME280;33676;51.006;17.180;2023-08-21T12:51:07;100739.31;;;34.18;65.09
47913;BME280;33676;51.006;17.180;2023-08-21T12:53:36;100733.69;;;34.26;65.47
47913;BME280;33676;51.006;17.180;2023-08-21T12:56:04;100729.19;;;34.42;66.16
47913;BME280;33676;51.006;17.180;2023-08-21T12:58:33;100725.02;;;34.62;65.99
47913;BME280;33676;51.006;17.180;2023-08-21T13:01:01;100719.35;;;34.77;65.85
47913;BME280;33676;51.006;17.180;2023-08-21T13:03:33;100720.41;;;34.87;65.80
47913;BME280;33676;51.006;17.180;2023-08-21T13:06:02;100720.55;;;35.03;65.73
47913;BME280;33676;51.006;17.180;2023-08-21T13:08:30;100713.46;;;35.08;65.06